16. August 2022

Uhrzeit Code Wetter Temp. Sichtweite Wolkendecke Wind METAR/SPECI
14:55
V
20 °C 8 km - 280° 280° 11 kt METAR EHMA 161255Z AUTO 28011KT 8000 FEW014 20/19 Q1008
14:25
V
20 °C 8 km - 280° 280° 12 kt METAR EHMA 161225Z AUTO 28012KT 8000 FEW014 20/19 Q1008
13:55
M
20 °C 7 km - 280° 280° 12 kt METAR EHMA 161155Z AUTO 28012KT 7000 FEW014 20/19 Q1007
13:25
V
22 °C 10 km+ - 240° 240° 15 kt METAR EHMA 161125Z AUTO 24015KT 9999 NSC 22/19 Q1007
12:55
V
22 °C 10 km+ - 260° 260° 13 kt METAR EHMA 161055Z AUTO 26013KT 9999 NCD 22/19 Q1007
12:25
V
22 °C 10 km+ - 250° 250° 14 kt METAR EHMA 161025Z AUTO 25014KT 9999 NCD 22/19 Q1007
11:55
V
22 °C 10 km+ - 240° 240° 15 kt METAR EHMA 160955Z AUTO 24015KT 9999 FEW013 22/19 Q1006
11:25
V
22 °C 10 km+ - 230° 230° 16 kt METAR EHMA 160925Z AUTO 23016KT 9999 FEW013 SCT015 22/19 Q1006
10:55
V
22 °C 10 km+ - 230° 230° 15 kt METAR EHMA 160855Z AUTO 23015KT 9999 SCT013 SCT016 22/19 Q1006
10:25
V
22 °C 10 km+ - 220° 220° 13 kt METAR EHMA 160825Z AUTO 22013KT 9999 FEW013 22/18 Q1006
09:55
V
22 °C 8 km - 210° 210° 14 kt METAR EHMA 160755Z AUTO 21014KT 8000 FEW012 22/18 Q1005
09:25
V
21 °C 9 km - 200° 200° 10 kt METAR EHMA 160725Z AUTO 20010KT 9000 NSC 21/18 Q1005
08:55
V
21 °C 9 km - 200° 200° 15 kt METAR EHMA 160655Z AUTO 20015KT 9000 NSC 21/18 Q1005
08:25
V
20 °C 9 km - Var Var 19 kt METAR EHMA 160625Z AUTO VRB19KT 9000 NCD 20/18 Q1005
07:55
V
20 °C 9 km - 200° 200° 17 kt METAR EHMA 160555Z AUTO 20017KT 9000 NCD 20/18 Q1005
07:25
V
20 °C 8 km - 200° 200° 16 kt METAR EHMA 160525Z AUTO 20016KT 8000 NCD 20/18 Q1004
06:55
V
20 °C 10 km+ - 200° 200° 14 kt METAR EHMA 160455Z AUTO 20014KT 9999 NSC 20/18 Q1004
06:25
V
21 °C 10 km+ - 200° 200° 13 kt METAR EHMA 160425Z AUTO 20013KT 180V260 9999 NSC 21/18 Q1005
05:55
V
21 °C 10 km+ - 200° 200° 14 kt METAR EHMA 160355Z AUTO 20014KT 140V270 9999 NSC 21/18 Q1004
05:25
V
21 °C 10 km+ - 180° 180° 11 kt METAR EHMA 160325Z AUTO 18011KT 9999 NSC 21/18 Q1005
04:55
V
21 °C 10 km+ - 190° 190° 10 kt METAR EHMA 160255Z AUTO 19010KT 9999 NSC 21/18 Q1005
04:25
V
21 °C 10 km+ - 190° 190° 9 kt METAR EHMA 160225Z AUTO 19009KT 9999 NSC 21/18 Q1005
03:55
V
21 °C 10 km+ - 180° 180° 11 kt METAR EHMA 160155Z AUTO 18011KT 9999 NSC 21/18 Q1005
03:25
V
21 °C 10 km+ - 160° 160° 8 kt METAR EHMA 160125Z AUTO 16008KT 9999 NSC 21/19 Q1005
02:55
V
21 °C 10 km+ - 130° 130° 7 kt METAR EHMA 160055Z AUTO 13007KT 9999 NSC 21/18 Q1005
02:25
V
22 °C 10 km+ - 170° 170° 5 kt METAR EHMA 160025Z AUTO 17005KT 9999 -DZ NSC 22/18 Q1005
01:55
V
22 °C 10 km+ - 180° 180° 4 kt METAR EHMA 152355Z AUTO 18004KT 9999 NSC 22/19 Q1005
01:25
V
21 °C 10 km+ - 210° 210° 5 kt METAR EHMA 152325Z AUTO 21005KT 170V280 9999 NSC 21/18 Q1005
00:55
V
22 °C 10 km+ - Var Var 6 kt METAR EHMA 152255Z AUTO VRB06KT 9999 NSC 22/18 Q1005
00:25
V
22 °C 10 km+ - 210° 210° 7 kt METAR EHMA 152225Z AUTO 21007KT 9999 NSC 22/18 Q1005

15. August 2022

Uhrzeit Code Wetter Temp. Sichtweite Wolkendecke Wind METAR/SPECI
23:55
V
22 °C 10 km+ - 210° 210° 6 kt METAR EHMA 152155Z AUTO 21006KT 9999 NSC 22/19 Q1005
23:25
V
22 °C 10 km+ - 230° 230° 6 kt METAR EHMA 152125Z AUTO 23006KT 9999 NSC 22/19 Q1005
22:55
V
22 °C 10 km+ - 240° 240° 7 kt METAR EHMA 152055Z AUTO 24007KT 9999 NSC 22/19 Q1005
22:25
V
22 °C 10 km+ - 250° 250° 8 kt METAR EHMA 152025Z AUTO 25008KT 9999 NSC 22/19 Q1005
21:55
V
22 °C 10 km+ - 240° 240° 8 kt METAR EHMA 151955Z AUTO 24008KT 9999 NSC 22/19 Q1005
21:25
V
22 °C 10 km+ - 240° 240° 8 kt METAR EHMA 151925Z AUTO 24008KT 9999 NSC 22/19 Q1004
20:55
V
22 °C 10 km+ - 240° 240° 6 kt METAR EHMA 151855Z AUTO 24006KT 9999 NSC 22/18 Q1004
20:25
V
22 °C 10 km+ - 220° 220° 7 kt METAR EHMA 151825Z AUTO 22007KT 9999 NSC 22/18 Q1004
19:55
V
22 °C 10 km+ - 250° 250° 4 kt METAR EHMA 151755Z AUTO 25004KT 9999 NSC 22/19 Q1004
19:25
V
22 °C 10 km+ - 280° 280° 8 kt METAR EHMA 151725Z AUTO 28008KT 9999 NSC 22/19 Q1004
18:55
V
22 °C 10 km+ - 280° 280° 8 kt METAR EHMA 151655Z AUTO 28008KT 9999 NSC 22/18 Q1004
18:25
V
22 °C 10 km+ - 290° 290° 9 kt METAR EHMA 151625Z AUTO 29009KT 9999 NSC 22/18 Q1004
17:55
V
22 °C 10 km+ - 290° 290° 10 kt METAR EHMA 151555Z AUTO 29010KT 9999 NSC 22/18 Q1004
17:25
V
22 °C 10 km+ - 290° 290° 12 kt METAR EHMA 151525Z AUTO 29012KT 9999 NSC 22/18 Q1003
16:55
V
22 °C 10 km+ - 280° 280° 13 kt METAR EHMA 151455Z AUTO 28013KT 9999 NSC 22/17 Q1003
16:25
V
23 °C 10 km+ - 280° 280° 15 kt METAR EHMA 151425Z AUTO 28015KT 9999 NSC 23/17 Q1003
15:55
V
23 °C 10 km+ - 280° 280° 14 kt METAR EHMA 151355Z AUTO 28014KT 9999 NSC 23/19 Q1003
15:25
M
22 °C 6 km - 290° 290° 7 kt METAR EHMA 151325Z AUTO 29007KT 6000 NSC 22/20 Q1003
14:55
M
22 °C 6 km - 280° 280° 9 kt METAR EHMA 151255Z AUTO 28009KT 6000 NSC 22/20 Q1003
14:25
V
22 °C 8 km - 290° 290° 10 kt METAR EHMA 151225Z AUTO 29010KT 8000 NSC 22/19 Q1003
13:55
V
25 °C 10 km+ - 180° 180° 7 kt METAR EHMA 151155Z AUTO 18007KT 150V210 9999 NSC 25/18 Q1003
13:25
V
26 °C 10 km+ - 170° 170° 8 kt METAR EHMA 151125Z AUTO 17008KT 9999 NSC 26/17 Q1003
12:55
V
25 °C 10 km+ - 140° 140° 9 kt METAR EHMA 151055Z AUTO 14009KT 9999 NSC 25/17 Q1003
12:25
V
24 °C 10 km+ - 120° 120° 10 kt METAR EHMA 151025Z AUTO 12010KT 9999 NSC 24/18 Q1003
11:55
V
24 °C 10 km+ - 110° 110° 11 kt METAR EHMA 150955Z AUTO 11011KT 9999 NSC 24/18 Q1003
11:25
V
24 °C 10 km+ - 110° 110° 12 kt METAR EHMA 150925Z AUTO 11012KT 9999 NSC 24/18 Q1003
10:55
V
24 °C 10 km+ - 120° 120° 13 kt METAR EHMA 150855Z AUTO 12013KT 9999 NSC 24/19 Q1003
10:25
V
23 °C 10 km+ - 120° 120° 8 kt METAR EHMA 150825Z AUTO 12008KT 9999 NSC 23/19 Q1003
09:55
V
23 °C 10 km+ - 090° 090° 6 kt METAR EHMA 150755Z AUTO 09006KT 060V120 9999 NSC 23/20 Q1003
09:25
V
23 °C 10 km+ - 110° 110° 5 kt METAR EHMA 150725Z AUTO 11005KT 9999 NSC 23/19 Q1003
08:55
V
23 °C 10 km+ - 100° 100° 9 kt METAR EHMA 150655Z AUTO 10009KT 9999 NSC 23/19 Q1003
08:25
V
23 °C 10 km+ - 100° 100° 10 kt METAR EHMA 150625Z AUTO 10010KT 9999 NSC 23/19 Q1003
07:55
V
22 °C 10 km+ - 110° 110° 9 kt METAR EHMA 150555Z AUTO 11009KT 9999 NSC 22/20 Q1003
07:25
V
22 °C 10 km+ - 100° 100° 8 kt METAR EHMA 150525Z AUTO 10008KT 9999 NSC 22/20 Q1003
06:55
V
22 °C 10 km+ - 110° 110° 7 kt METAR EHMA 150455Z AUTO 11007KT 9999 NSC 22/20 Q1003
06:25
V
23 °C 10 km+ - 100° 100° 9 kt METAR EHMA 150425Z AUTO 10009KT 9999 NSC 23/19 Q1003 RETS
05:55
V
22 °C 10 km+ - 110° 110° 9 kt METAR EHMA 150355Z AUTO 11009KT 9999 NSC 22/19 Q1003
05:25
V
22 °C 10 km+ - 110° 110° 9 kt METAR EHMA 150325Z AUTO 11009KT 9999 NSC 22/20 Q1003
04:55
V
23 °C 10 km+ - 100° 100° 10 kt METAR EHMA 150255Z AUTO 10010KT 9999 NSC 23/20 Q1003
04:25
V
23 °C 10 km+ - 100° 100° 7 kt METAR EHMA 150225Z AUTO 10007KT 9999 NSC 23/19 Q1003
03:55
V
23 °C 10 km+ - 100° 100° 10 kt METAR EHMA 150155Z AUTO 10010KT 9999 NSC 23/19 Q1004
03:25
V
24 °C 10 km+ - 090° 090° 8 kt METAR EHMA 150125Z AUTO 09008KT 9999 NSC 24/19 Q1004
02:55
V
24 °C 10 km+ - 070° 070° 8 kt METAR EHMA 150055Z AUTO 07008KT 9999 NSC 24/20 Q1004
02:25
V
24 °C 10 km+ - 060° 060° 11 kt METAR EHMA 150025Z AUTO 06011KT 9999 NSC 24/20 Q1004
01:55
V
26 °C 10 km+ - 110° 110° 6 kt METAR EHMA 142355Z AUTO 11006KT 9999 NSC 26/16 Q1004
01:25
V
28 °C 10 km+ - 120° 120° 8 kt METAR EHMA 142325Z AUTO 12008KT 9999 FEW050CB 28/15 Q1004 RETSRA
00:55
V
27 °C 10 km+ - 120° 120° 22 kt METAR EHMA 142255Z AUTO 12022KT 9999 -TSRA FEW045CB 27/16 Q1004
00:25
V
23 °C 10 km+ - 110° 110° 7 kt METAR EHMA 142225Z AUTO 11007KT 9999 TS FEW015CB 23/21 Q1005

14. August 2022

Uhrzeit Code Wetter Temp. Sichtweite Wolkendecke Wind METAR/SPECI
23:55
V
23 °C 10 km+ - 100° 100° 10 kt METAR EHMA 142155Z AUTO 10010KT 9999 NSC 23/21 Q1005
23:25
V
23 °C 10 km+ - 110° 110° 10 kt METAR EHMA 142125Z AUTO 11010KT 9999 NSC 23/21 Q1005
22:55
V
23 °C 10 km+ - 110° 110° 11 kt METAR EHMA 142055Z AUTO 11011KT 9999 NSC 23/21 Q1005
22:25
V
23 °C 10 km+ - 090° 090° 11 kt METAR EHMA 142025Z AUTO 09011KT 9999 NSC 23/21 Q1006
21:55
V
23 °C 10 km+ - 090° 090° 12 kt METAR EHMA 141955Z AUTO 09012KT 9999 NSC 23/20 Q1006
21:25
V
23 °C 10 km+ - 080° 080° 12 kt METAR EHMA 141925Z AUTO 08012KT 9999 NSC 23/20 Q1006
20:55
V
23 °C 10 km+ - 080° 080° 14 kt METAR EHMA 141855Z AUTO 08014KT 9999 NSC 23/20 Q1006
20:25
V
23 °C 10 km+ - 080° 080° 13 kt METAR EHMA 141825Z AUTO 08013KT 9999 NSC 23/20 Q1006
19:55
V
23 °C 10 km+ - 080° 080° 14 kt METAR EHMA 141755Z AUTO 08014KT 040V130 9999 NSC 23/20 Q1006
19:25
V
23 °C 10 km+ - 070° 070° 14 kt METAR EHMA 141725Z AUTO 07014KT 9999 NSC 23/20 Q1006
18:55
V
23 °C 10 km+ - 080° 080° 14 kt METAR EHMA 141655Z AUTO 08014KT 9999 NSC 23/20 Q1007
18:25
V
23 °C 10 km+ - 070° 070° 14 kt METAR EHMA 141625Z AUTO 07014KT 9999 NSC 23/20 Q1007
17:55
V
23 °C 10 km+ - 070° 070° 14 kt METAR EHMA 141555Z AUTO 07014KT 060V120 9999 NSC 23/20 Q1007
17:25
V
23 °C 10 km+ - 080° 080° 15 kt METAR EHMA 141525Z AUTO 08015KT 9999 NSC 23/20 Q1007
16:55
V
23 °C 10 km+ - 070° 070° 15 kt METAR EHMA 141455Z AUTO 07015KT 9999 NSC 23/20 Q1007
16:25
V
23 °C 10 km+ - 060° 060° 14 kt METAR EHMA 141425Z AUTO 06014KT 9999 NSC 23/20 Q1008
15:55
V
23 °C 10 km+ - 070° 070° 14 kt METAR EHMA 141355Z AUTO 07014KT 9999 NSC 23/19 Q1008
15:25
V
23 °C 10 km+ - 070° 070° 14 kt METAR EHMA 141325Z AUTO 07014KT 9999 NCD 23/19 Q1008
14:55
V
23 °C 10 km+ - 070° 070° 14 kt METAR EHMA 141255Z AUTO 07014KT 9999 NCD 23/19 Q1009
Ältere Daten

Wir und Dritte verfolgen dein Internetverhalten auf unserer Website mit Cookies. Wenn du fortfährst, gehen wir davon aus, dass du mit unserer Cookie-Richtlinie einverstanden bist. Mehr erfahren